Time,TemperatureF,DewpointF,PressureIn,WindDirection,WindDirectionDegrees,WindSpeedMPH,WindSpeedGustMPH,Humidity,HourlyPrecipIn,Conditions,Clouds,dailyrainin,SolarRadiationWatts/m^2,SoftwareType,DateUTC
2014-01-03 00:02:00,19.9,12.3,30.40,NW,310,4.8,10.0,72,0.00,-SN,,0.00,0.0,WeatherDisplay:10.37,2014-01-03 06:02:00,
2014-01-03 00:07:00,19.8,12.2,30.40,North,355,3.1,8.1,72,0.00,-SN,,0.00,0.0,WeatherDisplay:10.37,2014-01-03 06:07:00,
2014-01-03 00:12:00,19.8,12.5,30.40,NNW,328,3.3,9.2,73,0.00,-SN,,0.00,0.0,WeatherDisplay:10.37,2014-01-03 06:12:00,
2014-01-03 00:17:00,19.8,12.5,30.40,NNW,337,3.4,5.8,73,0.00,-SN,,0.00,0.0,WeatherDisplay:10.37,2014-01-03 06:17:00,
2014-01-03 00:22:00,19.8,12.8,30.41,WNW,288,5.4,8.1,74,0.00,-SN,,0.00,0.0,WeatherDisplay:10.37,2014-01-03 06:22:00,
2014-01-03 00:27:00,19.7,12.8,30.41,NNW,338,5.4,9.2,74,0.00,-SN,,0.00,0.0,WeatherDisplay:10.37,2014-01-03 06:27:00,
2014-01-03 00:32:00,19.7,12.8,30.41,North,360,6.1,9.2,74,0.00,-SN,,0.00,0.0,WeatherDisplay:10.37,2014-01-03 06:32:00,
2014-01-03 00:37:00,19.5,12.3,30.42,North,11,3.9,9.2,73,0.00,-SN,,0.00,0.0,WeatherDisplay:10.37,2014-01-03 06:37:00,
2014-01-03 00:42:00,19.4,12.2,30.43,NW,307,5.1,8.1,73,0.00,-SN,,0.00,0.0,WeatherDisplay:10.37,2014-01-03 06:42:00,
2014-01-03 00:47:00,19.4,12.5,30.43,WNW,295,2.9,6.9,74,0.00,-SN,,0.00,0.0,WeatherDisplay:10.37,2014-01-03 06:47:00,
2014-01-03 00:52:00,19.3,12.7,30.43,NW,313,6.1,10.0,75,0.00,-SN,,0.00,0.0,WeatherDisplay:10.37,2014-01-03 06:52:00,
2014-01-03 00:57:00,19.3,12.7,30.43,NW,314,5.2,8.1,75,0.00,-SN,,0.00,0.0,WeatherDisplay:10.37,2014-01-03 06:57:00,
2014-01-03 01:02:00,19.3,12.7,30.43,NW,309,4.9,10.4,75,0.00,-SN,,0.00,0.0,WeatherDisplay:10.37,2014-01-03 07:02:00,
2014-01-03 01:07:00,19.3,12.7,30.44,WNW,296,4.5,8.1,75,0.00,-SN,,0.00,0.0,WeatherDisplay:10.37,2014-01-03 07:07:00,
2014-01-03 01:12:00,19.2,12.3,30.44,WNW,298,5.8,6.9,74,0.00,-SN,,0.00,0.0,WeatherDisplay:10.37,2014-01-03 07:12:00,
2014-01-03 01:17:00,19.1,12.2,30.44,WNW,301,6.8,12.7,74,0.00,-SN,,0.00,0.0,WeatherDisplay:10.37,2014-01-03 07:17:00,
2014-01-03 01:22:00,19.0,12.1,30.44,WNW,292,4.7,8.1,74,0.00,-SN,,0.00,0.0,WeatherDisplay:10.37,2014-01-03 07:22:00,
2014-01-03 01:27:00,19.0,12.1,30.44,NW,319,6.5,11.5,74,0.00,-SN,,0.00,0.0,WeatherDisplay:10.37,2014-01-03 07:27:00,
2014-01-03 01:32:00,18.8,11.9,30.45,NW,325,6.2,11.5,74,0.00,-SN,,0.00,0.0,WeatherDisplay:10.37,2014-01-03 07:32:00,
2014-01-03 01:37:00,18.8,11.9,30.45,NW,322,4.2,5.8,74,0.00,-SN,,0.00,0.0,WeatherDisplay:10.37,2014-01-03 07:37:00,
2014-01-03 01:42:00,18.7,12.1,30.46,WNW,300,4.5,5.0,75,0.00,-SN,,0.00,0.0,WeatherDisplay:10.37,2014-01-03 07:42:00,
2014-01-03 01:47:00,18.6,12.0,30.46,NNW,330,5.1,9.0,75,0.00,-SN,,0.00,0.0,WeatherDisplay:10.37,2014-01-03 07:47:00,
2014-01-03 01:52:00,18.4,11.8,30.46,NW,304,2.2,8.1,75,0.00,-SN,,0.00,0.0,WeatherDisplay:10.37,2014-01-03 07:52:00,
2014-01-03 01:57:00,18.3,11.7,30.46,NW,319,6.1,11.5,75,0.00,-SN,,0.00,0.0,WeatherDisplay:10.37,2014-01-03 07:57:00,
2014-01-03 02:02:00,18.1,11.5,30.46,NW,322,4.8,10.4,75,0.00,FEW,,0.00,0.0,WeatherDisplay:10.37,2014-01-03 08:02:00,
2014-01-03 02:07:00,17.9,11.3,30.46,NNW,346,4.5,9.2,75,0.00,FEW,,0.00,0.0,WeatherDisplay:10.37,2014-01-03 08:07:00,
2014-01-03 02:12:00,17.7,11.1,30.45,NW,309,8.1,8.1,75,0.00,FEW,,0.00,0.0,WeatherDisplay:10.37,2014-01-03 08:12:00,
2014-01-03 02:17:00,17.6,11.0,30.46,NW,322,4.6,9.2,75,0.00,FEW,,0.00,0.0,WeatherDisplay:10.37,2014-01-03 08:17:00,
2014-01-03 02:22:00,17.5,10.9,30.47,NNW,335,4.6,9.0,75,0.00,FEW,,0.00,0.0,WeatherDisplay:10.37,2014-01-03 08:22:00,
2014-01-03 02:27:00,17.3,10.7,30.47,WNW,284,4.0,6.9,75,0.00,FEW,,0.00,0.0,WeatherDisplay:10.37,2014-01-03 08:27:00,
2014-01-03 02:32:00,17.3,11.0,30.47,WNW,283,6.8,11.5,76,0.00,FEW,,0.00,0.0,WeatherDisplay:10.37,2014-01-03 08:32:00,
2014-01-03 02:37:00,17.2,10.9,30.48,NW,319,1.0,2.3,76,0.00,FEW,,0.00,0.0,WeatherDisplay:10.37,2014-01-03 08:37:00,
2014-01-03 02:42:00,17.1,10.8,30.48,NW,306,3.5,6.0,76,0.00,FEW,,0.00,0.0,WeatherDisplay:10.37,2014-01-03 08:42:00,
2014-01-03 02:47:00,17.0,10.7,30.48,NNW,336,4.4,9.2,76,0.00,FEW,,0.00,0.0,WeatherDisplay:10.37,2014-01-03 08:47:00,
2014-01-03 02:52:00,16.9,10.6,30.48,NW,319,3.4,5.8,76,0.00,FEW,,0.00,0.0,WeatherDisplay:10.37,2014-01-03 08:52:00,
2014-01-03 02:57:00,16.8,10.5,30.48,NNE,18,5.1,9.0,76,0.00,FEW,,0.00,0.0,WeatherDisplay:10.37,2014-01-03 08:57:00,
2014-01-03 03:02:00,16.8,10.5,30.48,NNW,348,2.9,5.8,76,0.00,CLR,,0.00,0.0,WeatherDisplay:10.37,2014-01-03 09:02:00,
2014-01-03 03:07:00,16.7,10.4,30.48,NW,306,5.3,5.8,76,0.00,CLR,,0.00,0.0,WeatherDisplay:10.37,2014-01-03 09:07:00,
2014-01-03 03:12:00,16.6,10.3,30.48,NW,312,2.7,6.9,76,0.00,CLR,,0.00,0.0,WeatherDisplay:10.37,2014-01-03 09:12:00,
2014-01-03 03:17:00,16.5,10.3,30.49,NW,320,4.4,10.4,76,0.00,CLR,,0.00,0.0,WeatherDisplay:10.37,2014-01-03 09:17:00,
2014-01-03 03:22:00,16.4,10.2,30.49,NW,305,4.6,5.8,76,0.00,CLR,,0.00,0.0,WeatherDisplay:10.37,2014-01-03 09:22:00,
2014-01-03 03:27:00,16.4,9.9,30.49,NNW,331,3.1,4.6,75,0.00,CLR,,0.00,0.0,WeatherDisplay:10.37,2014-01-03 09:27:00,
2014-01-03 03:32:00,16.3,9.8,30.48,NW,311,5.5,9.2,75,0.00,CLR,,0.00,0.0,WeatherDisplay:10.37,2014-01-03 09:32:00,
2014-01-03 03:37:00,16.2,9.7,30.48,North,350,3.2,8.1,75,0.00,CLR,,0.00,0.0,WeatherDisplay:10.37,2014-01-03 09:37:00,
2014-01-03 03:42:00,16.2,9.7,30.48,NNW,327,1.8,6.9,75,0.00,CLR,,0.00,0.0,WeatherDisplay:10.37,2014-01-03 09:42:00,
2014-01-03 03:47:00,16.1,9.6,30.48,NW,321,5.8,7.0,75,0.00,CLR,,0.00,0.0,WeatherDisplay:10.37,2014-01-03 09:47:00,
2014-01-03 03:52:00,16.0,9.5,30.49,NW,326,4.0,6.9,75,0.00,CLR,,0.00,0.0,WeatherDisplay:10.37,2014-01-03 09:52:00,
2014-01-03 03:57:00,16.0,9.5,30.49,NNW,336,6.5,10.4,75,0.00,CLR,,0.00,0.0,WeatherDisplay:10.37,2014-01-03 09:57:00,
2014-01-03 04:02:00,15.9,9.4,30.48,NNW,327,5.1,10.4,75,0.00,CLR,,0.00,0.0,WeatherDisplay:10.37,2014-01-03 10:02:00,
2014-01-03 04:07:00,15.8,9.3,30.48,NW,316,3.5,4.6,75,0.00,CLR,,0.00,0.0,WeatherDisplay:10.37,2014-01-03 10:07:00,
2014-01-03 04:12:00,15.8,9.3,30.48,NNE,15,4.1,6.9,75,0.00,CLR,,0.00,0.0,WeatherDisplay:10.37,2014-01-03 10:12:00,
2014-01-03 04:17:00,15.7,9.2,30.47,NW,325,3.3,6.0,75,0.00,CLR,,0.00,0.0,WeatherDisplay:10.37,2014-01-03 10:17:00,
2014-01-03 04:22:00,15.7,9.2,30.48,NW,311,3.0,12.0,75,0.00,CLR,,0.00,0.0,WeatherDisplay:10.37,2014-01-03 10:22:00,
2014-01-03 04:27:00,15.6,9.1,30.47,NW,315,2.6,4.0,75,0.00,CLR,,0.00,0.0,WeatherDisplay:10.37,2014-01-03 10:27:00,
2014-01-03 04:32:00,15.5,9.0,30.47,NNE,14,4.2,5.8,75,0.00,CLR,,0.00,0.0,WeatherDisplay:10.37,2014-01-03 10:32:00,
2014-01-03 04:37:00,15.5,9.3,30.48,North,355,3.3,3.5,76,0.00,CLR,,0.00,0.0,WeatherDisplay:10.37,2014-01-03 10:37:00,
2014-01-03 04:42:00,15.5,9.3,30.48,NNE,26,4.6,10.4,76,0.00,CLR,,0.00,0.0,WeatherDisplay:10.37,2014-01-03 10:42:00,
2014-01-03 04:47:00,15.5,9.3,30.49,North,355,3.4,5.0,76,0.00,CLR,,0.00,0.0,WeatherDisplay:10.37,2014-01-03 10:47:00,
2014-01-03 04:52:00,15.4,9.2,30.49,NNW,336,3.1,6.0,76,0.00,CLR,,0.00,0.0,WeatherDisplay:10.37,2014-01-03 10:52:00,
2014-01-03 04:57:00,15.4,9.2,30.49,NW,325,2.6,5.8,76,0.00,CLR,,0.00,0.0,WeatherDisplay:10.37,2014-01-03 10:57:00,
2014-01-03 05:02:00,15.3,9.1,30.50,NW,313,3.3,4.6,76,0.00,CLR,,0.00,0.0,WeatherDisplay:10.37,2014-01-03 11:02:00,
2014-01-03 05:07:00,15.3,8.8,30.50,North,350,3.0,4.6,75,0.00,CLR,,0.00,0.0,WeatherDisplay:10.37,2014-01-03 11:07:00,
2014-01-03 05:12:00,15.2,9.0,30.49,NNW,329,4.5,6.9,76,0.00,CLR,,0.00,0.0,WeatherDisplay:10.37,2014-01-03 11:12:00,
2014-01-03 05:17:00,15.2,8.7,30.50,NW,326,3.2,5.8,75,0.00,CLR,,0.00,0.0,WeatherDisplay:10.37,2014-01-03 11:17:00,
2014-01-03 05:22:00,15.2,8.7,30.50,NNE,24,1.7,3.5,75,0.00,CLR,,0.00,0.0,WeatherDisplay:10.37,2014-01-03 11:22:00,
2014-01-03 05:27:00,15.2,9.0,30.50,North,355,3.2,8.1,76,0.00,CLR,,0.00,0.0,WeatherDisplay:10.37,2014-01-03 11:27:00,
2014-01-03 05:32:00,15.1,8.9,30.50,NNW,344,1.9,4.6,76,0.00,CLR,,0.00,0.0,WeatherDisplay:10.37,2014-01-03 11:32:00,
2014-01-03 05:37:00,15.0,8.8,30.50,North,351,4.7,5.8,76,0.00,CLR,,0.00,0.0,WeatherDisplay:10.37,2014-01-03 11:37:00,
2014-01-03 05:42:00,15.0,8.8,30.50,NW,319,5.4,5.8,76,0.00,CLR,,0.00,0.0,WeatherDisplay:10.37,2014-01-03 11:42:00,
2014-01-03 05:47:00,15.0,8.8,30.50,NNW,332,3.4,5.8,76,0.00,CLR,,0.00,0.0,WeatherDisplay:10.37,2014-01-03 11:47:00,
2014-01-03 05:52:00,14.9,8.7,30.50,North,5,1.2,2.3,76,0.00,CLR,,0.00,0.0,WeatherDisplay:10.37,2014-01-03 11:52:00,
2014-01-03 05:57:00,14.9,8.7,30.51,NW,319,2.0,3.5,76,0.00,CLR,,0.00,0.0,WeatherDisplay:10.37,2014-01-03 11:57:00,
2014-01-03 06:02:00,14.9,9.0,30.51,North,351,3.4,3.5,77,0.00,CLR,,0.00,0.0,WeatherDisplay:10.37,2014-01-03 12:02:00,
2014-01-03 06:07:00,14.9,9.0,30.52,NW,320,4.1,6.9,77,0.00,CLR,,0.00,0.0,WeatherDisplay:10.37,2014-01-03 12:07:00,
2014-01-03 06:12:00,14.9,9.0,30.51,NNW,337,3.5,4.6,77,0.00,CLR,,0.00,0.0,WeatherDisplay:10.37,2014-01-03 12:12:00,
2014-01-03 06:17:00,14.8,8.9,30.52,NW,326,4.2,8.1,77,0.00,CLR,,0.00,0.0,WeatherDisplay:10.37,2014-01-03 12:17:00,
2014-01-03 06:22:00,14.8,8.9,30.52,NW,319,1.8,3.5,77,0.00,CLR,,0.00,0.0,WeatherDisplay:10.37,2014-01-03 12:22:00,
2014-01-03 06:27:00,14.8,8.9,30.52,North,349,0.0,0.0,77,0.00,CLR,,0.00,0.0,WeatherDisplay:10.37,2014-01-03 12:27:00,
2014-01-03 06:32:00,14.7,8.8,30.52,WNW,297,0.3,1.2,77,0.00,CLR,,0.00,0.0,WeatherDisplay:10.37,2014-01-03 12:32:00,
2014-01-03 06:37:00,14.7,8.8,30.53,NNW,348,1.2,2.3,77,0.00,CLR,,0.00,0.0,WeatherDisplay:10.37,2014-01-03 12:37:00,
2014-01-03 06:42:00,14.6,8.7,30.53,North,360,2.1,3.5,77,0.00,CLR,,0.00,0.0,WeatherDisplay:10.37,2014-01-03 12:42:00,
2014-01-03 06:47:00,14.5,8.6,30.53,NNW,340,0.4,3.5,77,0.00,CLR,,0.00,0.0,WeatherDisplay:10.37,2014-01-03 12:47:00,
2014-01-03 06:52:00,14.5,8.6,30.54,NW,323,0.9,3.5,77,0.00,CLR,,0.00,0.0,WeatherDisplay:10.37,2014-01-03 12:52:00,
2014-01-03 06:57:00,14.4,8.5,30.55,NW,310,1.8,3.5,77,0.00,CLR,,0.00,5.0,WeatherDisplay:10.37,2014-01-03 12:57:00,
2014-01-03 07:02:00,14.4,8.5,30.55,NW,323,0.3,3.5,77,0.00,FEW,,0.00,7.0,WeatherDisplay:10.37,2014-01-03 13:02:00,
2014-01-03 07:07:00,14.3,8.4,30.55,NW,321,0.1,2.3,77,0.00,FEW,,0.00,9.0,WeatherDisplay:10.37,2014-01-03 13:07:00,
2014-01-03 07:12:00,14.4,8.8,30.55,NW,325,1.0,2.3,78,0.00,FEW,,0.00,11.0,WeatherDisplay:10.37,2014-01-03 13:12:00,
2014-01-03 07:17:00,14.4,8.8,30.55,NW,314,2.9,4.6,78,0.00,FEW,,0.00,12.0,WeatherDisplay:10.37,2014-01-03 13:17:00,
2014-01-03 07:22:00,14.4,8.8,30.55,North,355,2.1,3.5,78,0.00,FEW,,0.00,14.0,WeatherDisplay:10.37,2014-01-03 13:22:00,
2014-01-03 07:27:00,14.4,8.8,30.56,North,355,4.6,6.0,78,0.00,FEW,,0.00,16.0,WeatherDisplay:10.37,2014-01-03 13:27:00,
2014-01-03 07:32:00,14.5,8.9,30.56,NW,321,1.0,3.5,78,0.00,FEW,,0.00,21.0,WeatherDisplay:10.37,2014-01-03 13:32:00,
2014-01-03 07:37:00,14.6,9.0,30.57,NW,316,1.2,3.5,78,0.00,FEW,,0.00,26.0,WeatherDisplay:10.37,2014-01-03 13:37:00,
2014-01-03 07:42:00,14.8,9.2,30.57,North,11,3.1,5.8,78,0.00,FEW,,0.00,33.0,WeatherDisplay:10.37,2014-01-03 13:42:00,
2014-01-03 07:47:00,14.9,9.3,30.57,NW,307,0.0,3.5,78,0.00,FEW,,0.00,33.0,WeatherDisplay:10.37,2014-01-03 13:47:00,
2014-01-03 07:52:00,15.1,9.8,30.58,NE,42,2.5,6.9,79,0.00,FEW,,0.00,53.0,WeatherDisplay:10.37,2014-01-03 13:52:00,
2014-01-03 07:57:00,15.4,9.8,30.58,North,355,2.5,4.6,78,0.00,FEW,,0.00,54.0,WeatherDisplay:10.37,2014-01-03 13:57:00,
2014-01-03 08:02:00,15.6,9.7,30.59,NE,46,3.6,5.8,77,0.00,FEW,,0.00,70.0,WeatherDisplay:10.37,2014-01-03 14:02:00,
2014-01-03 08:07:00,15.8,9.6,30.59,North,11,3.5,8.1,76,0.00,FEW,,0.00,79.0,WeatherDisplay:10.37,2014-01-03 14:07:00,
2014-01-03 08:12:00,16.1,9.9,30.59,North,5,3.5,5.8,76,0.00,FEW,,0.00,100.0,WeatherDisplay:10.37,2014-01-03 14:12:00,
2014-01-03 08:17:00,16.3,9.8,30.59,North,355,3.8,6.9,75,0.00,FEW,,0.00,84.0,WeatherDisplay:10.37,2014-01-03 14:17:00,
2014-01-03 08:22:00,16.5,10.0,30.59,NNE,24,2.7,6.9,75,0.00,FEW,,0.00,74.0,WeatherDisplay:10.37,2014-01-03 14:22:00,
2014-01-03 08:27:00,16.7,10.1,30.58,NNW,331,4.4,5.8,75,0.00,FEW,,0.00,142.0,WeatherDisplay:10.37,2014-01-03 14:27:00,
2014-01-03 08:32:00,16.8,10.2,30.59,NW,325,2.2,8.1,75,0.00,FEW,,0.00,123.0,WeatherDisplay:10.37,2014-01-03 14:32:00,
2014-01-03 08:37:00,17.0,10.1,30.59,NNW,342,3.9,4.6,74,0.00,FEW,,0.00,111.0,WeatherDisplay:10.37,2014-01-03 14:37:00,
2014-01-03 08:42:00,17.2,10.3,30.59,NW,324,4.8,5.8,74,0.00,FEW,,0.00,114.0,WeatherDisplay:10.37,2014-01-03 14:42:00,
2014-01-03 08:47:00,17.4,10.8,30.59,NNW,330,1.6,4.6,75,0.00,FEW,,0.00,199.0,WeatherDisplay:10.37,2014-01-03 14:47:00,
2014-01-03 08:52:00,17.7,11.1,30.59,NNE,18,3.1,5.0,75,0.00,FEW,,0.00,244.0,WeatherDisplay:10.37,2014-01-03 14:52:00,
2014-01-03 08:57:00,17.9,10.1,30.59,NNW,334,4.3,6.9,71,0.00,FEW,,0.00,306.0,WeatherDisplay:10.37,2014-01-03 14:57:00,
2014-01-03 09:02:00,18.3,10.8,30.59,NNE,32,5.0,8.1,72,0.00,FEW,,0.00,320.0,WeatherDisplay:10.37,2014-01-03 15:02:00,
2014-01-03 09:07:00,18.6,10.8,30.59,NE,40,4.0,4.6,71,0.00,FEW,,0.00,332.0,WeatherDisplay:10.37,2014-01-03 15:07:00,
2014-01-03 09:12:00,18.9,10.7,30.59,North,5,3.2,4.0,70,0.00,FEW,,0.00,345.0,WeatherDisplay:10.37,2014-01-03 15:12:00,
2014-01-03 09:17:00,19.1,10.9,30.59,NNW,338,4.4,6.9,70,0.00,FEW,,0.00,353.0,WeatherDisplay:10.37,2014-01-03 15:17:00,
2014-01-03 09:22:00,19.5,11.0,30.59,NW,326,3.9,7.0,69,0.00,FEW,,0.00,371.0,WeatherDisplay:10.37,2014-01-03 15:22:00,
2014-01-03 09:27:00,19.7,10.8,30.59,North,5,3.3,4.6,68,0.00,FEW,,0.00,378.0,WeatherDisplay:10.37,2014-01-03 15:27:00,
2014-01-03 09:32:00,19.9,11.4,30.59,NNE,29,3.0,8.1,69,0.00,FEW,,0.00,392.0,WeatherDisplay:10.37,2014-01-03 15:32:00,
2014-01-03 09:37:00,20.1,11.2,30.58,North,355,3.6,5.0,68,0.00,FEW,,0.00,403.0,WeatherDisplay:10.37,2014-01-03 15:37:00,
2014-01-03 09:42:00,20.5,11.3,30.58,NE,42,6.6,6.6,67,0.00,FEW,,0.00,316.0,WeatherDisplay:10.37,2014-01-03 15:42:00,
2014-01-03 09:47:00,20.6,11.0,30.58,ENE,62,2.5,3.5,66,0.00,FEW,,0.00,244.0,WeatherDisplay:10.37,2014-01-03 15:47:00,
2014-01-03 09:52:00,20.7,11.8,30.58,NNE,16,3.0,6.9,68,0.00,FEW,,0.00,362.0,WeatherDisplay:10.37,2014-01-03 15:52:00,
2014-01-03 09:57:00,21.1,12.2,30.58,NNE,24,2.0,8.1,68,0.00,FEW,,0.00,281.0,WeatherDisplay:10.37,2014-01-03 15:57:00,
2014-01-03 10:02:00,21.4,12.1,30.59,NNW,338,3.5,5.0,67,0.00,CLR,,0.00,380.0,WeatherDisplay:10.37,2014-01-03 16:02:00,
2014-01-03 10:07:00,21.6,12.0,30.59,NE,38,5.2,6.9,66,0.00,CLR,,0.00,385.0,WeatherDisplay:10.37,2014-01-03 16:07:00,
2014-01-03 10:12:00,21.5,11.2,30.59,NNE,15,2.9,5.8,64,0.00,CLR,,0.00,476.0,WeatherDisplay:10.37,2014-01-03 16:12:00,
2014-01-03 10:18:00,21.4,10.7,30.58,NNE,20,4.3,4.6,63,0.00,CLR,,0.00,410.0,WeatherDisplay:10.37,2014-01-03 16:18:00,
2014-01-03 10:23:00,21.7,11.7,30.58,North,11,4.9,7.0,65,0.00,CLR,,0.00,267.0,WeatherDisplay:10.37,2014-01-03 16:23:00,
2014-01-03 10:28:00,21.9,11.6,30.59,North,355,2.4,3.5,64,0.00,CLR,,0.00,132.0,WeatherDisplay:10.37,2014-01-03 16:28:00,
2014-01-03 10:33:00,22.2,11.9,30.58,NNE,31,3.3,6.0,64,0.00,CLR,,0.00,436.0,WeatherDisplay:10.37,2014-01-03 16:33:00,
2014-01-03 10:38:00,22.4,11.7,30.58,NNE,19,1.4,4.0,63,0.00,CLR,,0.00,417.0,WeatherDisplay:10.37,2014-01-03 16:38:00,
2014-01-03 10:43:00,22.7,11.6,30.58,NE,35,3.0,6.0,62,0.00,CLR,,0.00,455.0,WeatherDisplay:10.37,2014-01-03 16:43:00,
2014-01-03 10:48:00,23.0,11.9,30.58,ENE,59,5.2,8.1,62,0.00,CLR,,0.00,348.0,WeatherDisplay:10.37,2014-01-03 16:48:00,
2014-01-03 10:53:00,23.0,10.8,30.58,NNE,20,3.5,6.9,59,0.00,CLR,,0.00,408.0,WeatherDisplay:10.37,2014-01-03 16:53:00,
2014-01-03 10:58:00,23.0,10.8,30.57,East,82,4.1,5.8,59,0.00,CLR,,0.00,452.0,WeatherDisplay:10.37,2014-01-03 16:58:00,
2014-01-03 11:03:00,23.0,10.8,30.57,NNE,24,2.6,4.6,59,0.00,CLR,,0.00,392.0,WeatherDisplay:10.37,2014-01-03 17:03:00,
2014-01-03 11:08:00,23.2,11.4,30.57,ENE,72,5.2,9.2,60,0.00,CLR,,0.00,418.0,WeatherDisplay:10.37,2014-01-03 17:08:00,
2014-01-03 11:13:00,23.1,10.5,30.57,ESE,114,1.2,2.3,58,0.00,CLR,,0.00,468.0,WeatherDisplay:10.37,2014-01-03 17:13:00,
2014-01-03 11:18:00,23.2,11.0,30.57,ENE,68,4.5,6.9,59,0.00,CLR,,0.00,185.0,WeatherDisplay:10.37,2014-01-03 17:18:00,
2014-01-03 11:23:00,23.3,11.1,30.57,NE,36,2.7,6.9,59,0.00,CLR,,0.00,352.0,WeatherDisplay:10.37,2014-01-03 17:23:00,
2014-01-03 11:28:00,23.2,10.2,30.56,NE,49,5.6,8.1,57,0.00,CLR,,0.00,144.0,WeatherDisplay:10.37,2014-01-03 17:28:00,
2014-01-03 11:33:00,23.3,11.1,30.56,ESE,110,4.2,6.9,59,0.00,CLR,,0.00,357.0,WeatherDisplay:10.37,2014-01-03 17:33:00,
2014-01-03 11:38:00,23.4,11.2,30.55,East,79,0.9,2.3,59,0.00,CLR,,0.00,279.0,WeatherDisplay:10.37,2014-01-03 17:38:00,
2014-01-03 11:43:00,23.6,11.7,30.55,NNW,333,2.5,4.6,60,0.00,CLR,,0.00,53.0,WeatherDisplay:10.37,2014-01-03 17:43:00,
2014-01-03 11:48:00,23.6,11.4,30.55,NE,51,3.9,6.9,59,0.00,CLR,,0.00,320.0,WeatherDisplay:10.37,2014-01-03 17:48:00,
2014-01-03 11:53:00,23.6,11.0,30.54,ENE,61,5.5,8.1,58,0.00,CLR,,0.00,264.0,WeatherDisplay:10.37,2014-01-03 17:53:00,
2014-01-03 11:58:00,23.6,11.4,30.54,East,100,4.9,8.1,59,0.00,CLR,,0.00,250.0,WeatherDisplay:10.37,2014-01-03 17:58:00,
2014-01-03 12:03:00,23.6,11.4,30.54,ESE,123,4.7,6.9,59,0.00,CLR,,0.00,204.0,WeatherDisplay:10.37,2014-01-03 18:03:00,
2014-01-03 12:08:00,23.7,11.4,30.53,NE,44,5.2,5.2,59,0.00,CLR,,0.00,49.0,WeatherDisplay:10.37,2014-01-03 18:08:00,
2014-01-03 12:13:00,23.9,10.9,30.53,NNE,19,1.0,5.8,57,0.00,CLR,,0.00,374.0,WeatherDisplay:10.37,2014-01-03 18:13:00,
2014-01-03 12:18:00,24.1,11.8,30.53,NNE,26,3.9,4.6,59,0.00,CLR,,0.00,371.0,WeatherDisplay:10.37,2014-01-03 18:18:00,
2014-01-03 12:23:00,24.3,12.0,30.53,ENE,57,1.9,5.0,59,0.00,CLR,,0.00,455.0,WeatherDisplay:10.37,2014-01-03 18:23:00,
2014-01-03 12:28:00,24.5,11.4,30.53,ENE,73,4.0,9.2,57,0.00,CLR,,0.00,455.0,WeatherDisplay:10.37,2014-01-03 18:28:00,
2014-01-03 12:33:00,24.7,12.0,30.53,East,89,2.1,3.5,58,0.00,CLR,,0.00,276.0,WeatherDisplay:10.37,2014-01-03 18:33:00,
2014-01-03 12:38:00,24.9,12.2,30.52,East,88,1.3,2.3,58,0.00,CLR,,0.00,56.0,WeatherDisplay:10.37,2014-01-03 18:38:00,
2014-01-03 12:43:00,25.0,11.9,30.52,NE,51,2.0,3.5,57,0.00,CLR,,0.00,378.0,WeatherDisplay:10.37,2014-01-03 18:43:00,
2014-01-03 12:48:00,25.0,11.5,30.52,ENE,76,5.0,6.9,56,0.00,CLR,,0.00,457.0,WeatherDisplay:10.37,2014-01-03 18:48:00,
2014-01-03 12:53:00,25.2,12.5,30.51,North,360,5.7,9.2,58,0.00,CLR,,0.00,387.0,WeatherDisplay:10.37,2014-01-03 18:53:00,
2014-01-03 12:58:00,25.2,12.9,30.51,WSW,250,0.5,2.3,59,0.00,CLR,,0.00,325.0,WeatherDisplay:10.37,2014-01-03 18:58:00,
2014-01-03 13:03:00,25.4,11.9,30.51,ESE,102,0.0,4.6,56,0.00,CLR,,0.00,67.0,WeatherDisplay:10.37,2014-01-03 19:03:00,
2014-01-03 13:08:00,25.6,12.9,30.51,ESE,117,5.8,8.0,58,0.00,CLR,,0.00,62.0,WeatherDisplay:10.37,2014-01-03 19:08:00,
2014-01-03 13:13:00,25.6,12.5,30.51,ENE,74,6.4,10.4,57,0.00,CLR,,0.00,79.0,WeatherDisplay:10.37,2014-01-03 19:13:00,
2014-01-03 13:18:00,25.6,12.9,30.51,East,90,3.1,7.0,58,0.00,CLR,,0.00,47.0,WeatherDisplay:10.37,2014-01-03 19:18:00,
2014-01-03 13:23:00,25.6,12.1,30.50,NNW,329,2.2,3.5,56,0.00,CLR,,0.00,49.0,WeatherDisplay:10.37,2014-01-03 19:23:00,
2014-01-03 13:28:00,25.7,12.2,30.50,NE,42,5.3,5.8,56,0.00,CLR,,0.00,53.0,WeatherDisplay:10.37,2014-01-03 19:28:00,
2014-01-03 13:33:00,25.9,11.9,30.50,East,88,4.2,5.8,55,0.00,CLR,,0.00,46.0,WeatherDisplay:10.37,2014-01-03 19:33:00,
2014-01-03 13:38:00,25.9,12.3,30.50,NE,49,1.9,3.0,56,0.00,CLR,,0.00,53.0,WeatherDisplay:10.37,2014-01-03 19:38:00,
2014-01-03 13:43:00,25.9,11.9,30.50,SSE,157,2.0,3.5,55,0.00,CLR,,0.00,47.0,WeatherDisplay:10.37,2014-01-03 19:43:00,
2014-01-03 13:48:00,26.2,12.6,30.50,ENE,57,5.8,8.1,56,0.00,CLR,,0.00,69.0,WeatherDisplay:10.37,2014-01-03 19:48:00,
2014-01-03 13:53:00,26.2,11.8,30.50,ESE,115,3.9,6.9,54,0.00,CLR,,0.00,49.0,WeatherDisplay:10.37,2014-01-03 19:53:00,
2014-01-03 13:58:00,26.1,12.1,30.50,SE,135,3.5,4.6,55,0.00,CLR,,0.00,46.0,WeatherDisplay:10.37,2014-01-03 19:58:00,
2014-01-03 14:03:00,26.1,11.3,30.50,ENE,78,2.8,5.8,53,0.00,FEW,,0.00,46.0,WeatherDisplay:10.37,2014-01-03 20:03:00,
2014-01-03 14:08:00,26.1,11.7,30.49,SSE,159,0.0,1.0,54,0.00,FEW,,0.00,40.0,WeatherDisplay:10.37,2014-01-03 20:08:00,
2014-01-03 14:13:00,26.1,11.7,30.49,ESE,113,3.1,4.6,54,0.00,FEW,,0.00,40.0,WeatherDisplay:10.37,2014-01-03 20:13:00,
2014-01-03 14:18:00,26.1,11.3,30.49,East,91,2.8,6.9,53,0.00,FEW,,0.00,46.0,WeatherDisplay:10.37,2014-01-03 20:18:00,
2014-01-03 14:23:00,26.1,11.7,30.49,ENE,70,0.0,3.5,54,0.00,FEW,,0.00,44.0,WeatherDisplay:10.37,2014-01-03 20:23:00,
2014-01-03 14:28:00,26.1,11.7,30.49,NE,38,2.9,5.8,54,0.00,FEW,,0.00,49.0,WeatherDisplay:10.37,2014-01-03 20:28:00,
2014-01-03 14:33:00,26.3,11.5,30.49,NE,56,3.2,4.6,53,0.00,FEW,,0.00,42.0,WeatherDisplay:10.37,2014-01-03 20:33:00,
2014-01-03 14:38:00,26.3,11.0,30.48,East,87,1.3,3.5,52,0.00,FEW,,0.00,35.0,WeatherDisplay:10.37,2014-01-03 20:38:00,
2014-01-03 14:43:00,26.3,11.5,30.48,SE,142,2.4,3.5,53,0.00,FEW,,0.00,35.0,WeatherDisplay:10.37,2014-01-03 20:43:00,
2014-01-03 14:48:00,26.4,12.0,30.48,ESE,107,1.1,4.6,54,0.00,FEW,,0.00,35.0,WeatherDisplay:10.37,2014-01-03 20:48:00,
2014-01-03 14:53:00,26.4,12.4,30.48,East,87,1.6,2.0,55,0.00,FEW,,0.00,42.0,WeatherDisplay:10.37,2014-01-03 20:53:00,
2014-01-03 14:58:00,26.5,12.1,30.48,SE,128,2.0,3.5,54,0.00,FEW,,0.00,56.0,WeatherDisplay:10.37,2014-01-03 20:58:00,
2014-01-03 15:03:00,26.6,12.2,30.47,South,170,0.5,2.3,54,0.00,FEW,,0.00,42.0,WeatherDisplay:10.37,2014-01-03 21:03:00,
2014-01-03 15:08:00,26.7,12.3,30.47,East,92,3.3,6.0,54,0.00,FEW,,0.00,49.0,WeatherDisplay:10.37,2014-01-03 21:08:00,
2014-01-03 15:13:00,26.9,12.9,30.48,SE,132,0.8,2.3,55,0.00,FEW,,0.00,46.0,WeatherDisplay:10.37,2014-01-03 21:13:00,
2014-01-03 15:18:00,26.9,12.5,30.48,South,174,0.0,1.2,54,0.00,FEW,,0.00,32.0,WeatherDisplay:10.37,2014-01-03 21:18:00,
2014-01-03 15:23:00,27.1,12.2,30.48,East,90,4.9,6.9,53,0.00,FEW,,0.00,32.0,WeatherDisplay:10.37,2014-01-03 21:23:00,
2014-01-03 15:28:00,27.1,12.2,30.48,East,90,3.7,4.6,53,0.00,FEW,,0.00,30.0,WeatherDisplay:10.37,2014-01-03 21:28:00,
2014-01-03 15:33:00,27.1,12.2,30.48,East,92,2.9,5.0,53,0.00,FEW,,0.00,30.0,WeatherDisplay:10.37,2014-01-03 21:33:00,
2014-01-03 15:38:00,27.1,12.2,30.48,East,89,2.6,4.6,53,0.00,FEW,,0.00,32.0,WeatherDisplay:10.37,2014-01-03 21:38:00,
2014-01-03 15:43:00,27.0,11.7,30.47,ESE,103,1.5,3.0,52,0.00,FEW,,0.00,40.0,WeatherDisplay:10.37,2014-01-03 21:43:00,
2014-01-03 15:48:00,27.1,12.2,30.47,ESE,103,4.1,6.9,53,0.00,FEW,,0.00,28.0,WeatherDisplay:10.37,2014-01-03 21:48:00,
2014-01-03 15:53:00,27.1,11.8,30.48,ESE,109,3.5,5.8,52,0.00,FEW,,0.00,30.0,WeatherDisplay:10.37,2014-01-03 21:53:00,
2014-01-03 15:58:00,27.1,12.2,30.48,SE,136,2.4,3.5,53,0.00,FEW,,0.00,28.0,WeatherDisplay:10.37,2014-01-03 21:58:00,
2014-01-03 16:03:00,27.1,12.2,30.48,SE,142,2.0,3.5,53,0.00,FEW,,0.00,32.0,WeatherDisplay:10.37,2014-01-03 22:03:00,
2014-01-03 16:08:00,27.2,12.3,30.48,SE,140,0.3,2.3,53,0.00,FEW,,0.00,32.0,WeatherDisplay:10.37,2014-01-03 22:08:00,
2014-01-03 16:13:00,27.2,11.4,30.48,SE,145,3.3,4.6,51,0.00,FEW,,0.00,23.0,WeatherDisplay:10.37,2014-01-03 22:13:00,
2014-01-03 16:18:00,27.2,11.9,30.47,East,83,1.6,3.5,52,0.00,FEW,,0.00,18.0,WeatherDisplay:10.37,2014-01-03 22:18:00,
2014-01-03 16:23:00,27.1,11.8,30.47,East,83,1.7,2.3,52,0.00,FEW,,0.00,16.0,WeatherDisplay:10.37,2014-01-03 22:23:00,
2014-01-03 16:28:00,27.0,12.1,30.47,East,89,2.0,3.5,53,0.00,FEW,,0.00,11.0,WeatherDisplay:10.37,2014-01-03 22:28:00,
2014-01-03 16:33:00,26.9,12.0,30.46,ESE,107,3.1,4.6,53,0.00,FEW,,0.00,7.0,WeatherDisplay:10.37,2014-01-03 22:33:00,
2014-01-03 16:38:00,26.8,11.5,30.46,ESE,106,1.3,2.3,52,0.00,FEW,,0.00,5.0,WeatherDisplay:10.37,2014-01-03 22:38:00,
2014-01-03 16:43:00,26.7,11.4,30.46,ESE,106,0.5,2.3,52,0.00,FEW,,0.00,5.0,WeatherDisplay:10.37,2014-01-03 22:43:00,
2014-01-03 16:48:00,26.6,11.7,30.46,ESE,106,0.0,1.2,53,0.00,FEW,,0.00,0.0,WeatherDisplay:10.37,2014-01-03 22:48:00,
2014-01-03 16:53:00,26.5,12.1,30.46,ESE,106,0.0,2.3,54,0.00,FEW,,0.00,0.0,WeatherDisplay:10.37,2014-01-03 22:53:00,
2014-01-03 16:58:00,26.4,12.8,30.46,ESE,106,0.0,1.2,56,0.00,FEW,,0.00,0.0,WeatherDisplay:10.37,2014-01-03 22:58:00,
2014-01-03 17:03:00,26.2,13.0,30.46,ESE,106,0.0,0.0,57,0.00,FEW,,0.00,0.0,WeatherDisplay:10.37,2014-01-03 23:03:00,
2014-01-03 17:08:00,25.9,13.5,30.46,ESE,106,0.0,0.0,59,0.00,FEW,,0.00,0.0,WeatherDisplay:10.37,2014-01-03 23:08:00,
2014-01-03 17:13:00,25.7,14.1,30.46,ESE,106,0.0,0.0,61,0.00,FEW,,0.00,0.0,WeatherDisplay:10.37,2014-01-03 23:13:00,
2014-01-03 17:18:00,25.4,13.1,30.46,ESE,106,0.3,1.2,59,0.00,FEW,,0.00,0.0,WeatherDisplay:10.37,2014-01-03 23:18:00,
2014-01-03 17:23:00,25.1,13.2,30.45,ESE,106,1.2,2.3,60,0.00,FEW,,0.00,0.0,WeatherDisplay:10.37,2014-01-03 23:23:00,
2014-01-03 17:28:00,24.9,12.6,30.45,ESE,106,1.3,2.3,59,0.00,FEW,,0.00,0.0,WeatherDisplay:10.37,2014-01-03 23:28:00,
2014-01-03 17:33:00,24.8,12.5,30.45,ESE,105,0.5,3.5,59,0.00,FEW,,0.00,0.0,WeatherDisplay:10.37,2014-01-03 23:33:00,
2014-01-03 17:38:00,24.6,12.7,30.45,ESE,105,1.6,2.3,60,0.00,FEW,,0.00,0.0,WeatherDisplay:10.37,2014-01-03 23:38:00,
2014-01-03 17:43:00,24.4,13.6,30.45,East,92,2.7,3.5,63,0.00,FEW,,0.00,0.0,WeatherDisplay:10.37,2014-01-03 23:43:00,
2014-01-03 17:48:00,24.2,13.0,30.44,East,92,1.2,3.5,62,0.00,FEW,,0.00,0.0,WeatherDisplay:10.37,2014-01-03 23:48:00,
2014-01-03 17:53:00,24.0,12.9,30.44,East,92,1.5,3.5,62,0.00,FEW,,0.00,0.0,WeatherDisplay:10.37,2014-01-03 23:53:00,
2014-01-03 17:58:00,23.9,13.1,30.44,East,92,1.0,2.3,63,0.00,FEW,,0.00,0.0,WeatherDisplay:10.37,2014-01-03 23:58:00,
2014-01-03 18:03:00,23.8,13.0,30.44,East,92,1.8,3.5,63,0.00,FEW,,0.00,0.0,WeatherDisplay:10.37,2014-01-04 00:03:00,
2014-01-03 18:08:00,23.8,13.0,30.44,East,92,0.0,1.2,63,0.00,FEW,,0.00,0.0,WeatherDisplay:10.37,2014-01-04 00:08:00,
2014-01-03 18:13:00,23.7,13.6,30.44,East,92,0.0,0.0,65,0.00,FEW,,0.00,0.0,WeatherDisplay:10.37,2014-01-04 00:13:00,
2014-01-03 18:18:00,23.5,14.1,30.44,East,92,1.6,1.6,67,0.00,FEW,,0.00,0.0,WeatherDisplay:10.37,2014-01-04 00:18:00,
2014-01-03 18:23:00,23.4,13.7,30.44,East,92,0.8,3.5,66,0.00,FEW,,0.00,0.0,WeatherDisplay:10.37,2014-01-04 00:23:00,
2014-01-03 18:28:00,23.3,13.3,30.44,East,92,0.1,2.3,65,0.00,FEW,,0.00,0.0,WeatherDisplay:10.37,2014-01-04 00:28:00,
2014-01-03 18:33:00,23.3,13.3,30.44,East,92,0.8,2.3,65,0.00,FEW,,0.00,0.0,WeatherDisplay:10.37,2014-01-04 00:33:00,
2014-01-03 18:38:00,23.3,14.0,30.44,East,92,0.0,0.0,67,0.00,FEW,,0.00,0.0,WeatherDisplay:10.37,2014-01-04 00:38:00,
2014-01-03 18:43:00,23.2,14.2,30.44,East,92,0.0,0.0,68,0.00,FEW,,0.00,0.0,WeatherDisplay:10.37,2014-01-04 00:43:00,
2014-01-03 18:48:00,23.1,14.4,30.44,East,92,0.2,1.0,69,0.00,FEW,,0.00,0.0,WeatherDisplay:10.37,2014-01-04 00:48:00,
2014-01-03 18:53:00,22.8,14.1,30.44,East,92,2.0,3.5,69,0.00,FEW,,0.00,0.0,WeatherDisplay:10.37,2014-01-04 00:53:00,
2014-01-03 18:58:00,22.6,14.3,30.43,East,92,1.6,2.3,70,0.00,FEW,,0.00,0.0,WeatherDisplay:10.37,2014-01-04 00:58:00,
2014-01-03 19:03:00,22.5,14.2,30.44,East,92,0.0,0.0,70,0.00,CLR,,0.00,0.0,WeatherDisplay:10.37,2014-01-04 01:03:00,
2014-01-03 19:08:00,22.4,14.1,30.43,East,92,0.3,1.2,70,0.00,CLR,,0.00,0.0,WeatherDisplay:10.37,2014-01-04 01:08:00,
2014-01-03 19:13:00,22.2,14.2,30.42,East,101,2.5,3.5,71,0.00,CLR,,0.00,0.0,WeatherDisplay:10.37,2014-01-04 01:13:00,
2014-01-03 19:18:00,22.0,14.0,30.42,ESE,121,2.5,3.5,71,0.00,CLR,,0.00,0.0,WeatherDisplay:10.37,2014-01-04 01:18:00,
2014-01-03 19:23:00,21.9,13.9,30.41,ESE,117,1.2,3.5,71,0.00,CLR,,0.00,0.0,WeatherDisplay:10.37,2014-01-04 01:23:00,
2014-01-03 19:28:00,21.7,14.1,30.41,ESE,120,2.5,3.5,72,0.00,CLR,,0.00,0.0,WeatherDisplay:10.37,2014-01-04 01:28:00,
2014-01-03 19:33:00,21.6,13.6,30.41,ESE,116,1.6,4.6,71,0.00,CLR,,0.00,0.0,WeatherDisplay:10.37,2014-01-04 01:33:00,
2014-01-03 19:38:00,21.6,13.3,30.40,SE,127,2.1,3.5,70,0.00,CLR,,0.00,0.0,WeatherDisplay:10.37,2014-01-04 01:38:00,
2014-01-03 19:43:00,21.7,13.1,30.40,ESE,121,1.9,3.5,69,0.00,CLR,,0.00,0.0,WeatherDisplay:10.37,2014-01-04 01:43:00,
2014-01-03 19:48:00,21.8,13.2,30.40,East,94,2.0,3.5,69,0.00,CLR,,0.00,0.0,WeatherDisplay:10.37,2014-01-04 01:48:00,
2014-01-03 19:53:00,22.0,13.0,30.40,East,96,1.7,5.8,68,0.00,CLR,,0.00,0.0,WeatherDisplay:10.37,2014-01-04 01:53:00,
2014-01-03 19:58:00,22.2,12.9,30.40,ESE,114,1.8,3.5,67,0.00,CLR,,0.00,0.0,WeatherDisplay:10.37,2014-01-04 01:58:00,
2014-01-03 20:03:00,22.4,12.8,30.40,ESE,103,2.7,4.6,66,0.00,CLR,,0.00,0.0,WeatherDisplay:10.37,2014-01-04 02:03:00,
2014-01-03 20:08:00,22.6,12.9,30.40,SE,128,3.4,3.5,66,0.00,CLR,,0.00,0.0,WeatherDisplay:10.37,2014-01-04 02:08:00,
2014-01-03 20:13:00,22.7,12.7,30.40,ESE,122,2.0,3.5,65,0.00,CLR,,0.00,0.0,WeatherDisplay:10.37,2014-01-04 02:13:00,
2014-01-03 20:18:00,22.7,12.7,30.40,ESE,111,0.5,1.2,65,0.00,CLR,,0.00,0.0,WeatherDisplay:10.37,2014-01-04 02:18:00,
2014-01-03 20:23:00,22.8,12.8,30.40,ESE,111,1.1,2.3,65,0.00,CLR,,0.00,0.0,WeatherDisplay:10.37,2014-01-04 02:23:00,
2014-01-03 20:28:00,22.8,12.8,30.40,East,94,0.7,3.5,65,0.00,CLR,,0.00,0.0,WeatherDisplay:10.37,2014-01-04 02:28:00,
2014-01-03 20:33:00,22.8,13.1,30.40,East,96,0.2,1.2,66,0.00,CLR,,0.00,0.0,WeatherDisplay:10.37,2014-01-04 02:33:00,
2014-01-03 20:38:00,22.8,13.5,30.40,East,96,0.5,2.3,67,0.00,CLR,,0.00,0.0,WeatherDisplay:10.37,2014-01-04 02:38:00,
2014-01-03 20:43:00,22.7,13.7,30.40,East,96,0.5,1.2,68,0.00,CLR,,0.00,0.0,WeatherDisplay:10.37,2014-01-04 02:43:00,
2014-01-03 20:48:00,22.5,13.9,30.40,East,96,1.1,3.5,69,0.00,CLR,,0.00,0.0,WeatherDisplay:10.37,2014-01-04 02:48:00,
2014-01-03 20:53:00,22.2,13.9,30.40,ENE,78,1.3,2.3,70,0.00,CLR,,0.00,0.0,WeatherDisplay:10.37,2014-01-04 02:53:00,
2014-01-03 20:58:00,21.9,13.9,30.39,ENE,78,1.0,2.3,71,0.00,CLR,,0.00,0.0,WeatherDisplay:10.37,2014-01-04 02:58:00,
2014-01-03 21:00:00,21.8,13.8,30.39,ENE,78,0.9,2.3,71,0.00,CLR,,0.00,0.0,WeatherDisplay:10.37,2014-01-04 03:00:00,
2014-01-03 21:05:00,21.7,13.7,30.39,ENE,78,0.0,1.2,71,0.00,CLR,,0.00,0.0,WeatherDisplay:10.37,2014-01-04 03:05:00,
2014-01-03 21:10:00,21.5,13.5,30.39,ENE,78,0.8,1.2,71,0.00,CLR,,0.00,0.0,WeatherDisplay:10.37,2014-01-04 03:10:00,
2014-01-03 21:15:00,21.1,13.5,30.38,ENE,78,1.2,2.3,72,0.00,CLR,,0.00,0.0,WeatherDisplay:10.37,2014-01-04 03:15:00,
2014-01-03 21:20:00,20.9,13.6,30.38,ENE,78,0.0,1.2,73,0.00,CLR,,0.00,0.0,WeatherDisplay:10.37,2014-01-04 03:20:00,
2014-01-03 21:25:00,20.8,13.5,30.38,ENE,78,0.0,0.0,73,0.00,CLR,,0.00,0.0,WeatherDisplay:10.37,2014-01-04 03:25:00,
2014-01-03 21:30:00,20.7,13.4,30.38,ENE,78,0.0,0.0,73,0.00,CLR,,0.00,0.0,WeatherDisplay:10.37,2014-01-04 03:30:00,
2014-01-03 21:35:00,20.6,13.6,30.38,ENE,78,0.0,0.0,74,0.00,CLR,,0.00,0.0,WeatherDisplay:10.37,2014-01-04 03:35:00,
2014-01-03 21:40:00,20.4,13.4,30.38,ENE,78,0.0,0.0,74,0.00,CLR,,0.00,0.0,WeatherDisplay:10.37,2014-01-04 03:40:00,
2014-01-03 21:45:00,20.3,13.3,30.38,ENE,78,0.0,1.2,74,0.00,CLR,,0.00,0.0,WeatherDisplay:10.37,2014-01-04 03:45:00,
2014-01-03 21:50:00,20.3,13.3,30.38,ENE,78,0.0,0.0,74,0.00,CLR,,0.00,0.0,WeatherDisplay:10.37,2014-01-04 03:50:00,
2014-01-03 21:55:00,20.2,13.2,30.38,ENE,78,0.0,0.0,74,0.00,CLR,,0.00,0.0,WeatherDisplay:10.37,2014-01-04 03:55:00,
2014-01-03 22:00:00,20.1,13.1,30.38,ENE,78,0.0,0.0,74,0.00,CLR,,0.00,0.0,WeatherDisplay:10.37,2014-01-04 04:00:00,
2014-01-03 22:05:00,20.0,13.0,30.37,ENE,78,0.0,0.0,74,0.00,CLR,,0.00,0.0,WeatherDisplay:10.37,2014-01-04 04:05:00,
2014-01-03 22:10:00,19.8,12.8,30.37,ENE,78,0.0,0.0,74,0.00,CLR,,0.00,0.0,WeatherDisplay:10.37,2014-01-04 04:10:00,
2014-01-03 22:15:00,19.6,13.3,30.37,ENE,78,0.6,1.2,76,0.00,CLR,,0.00,0.0,WeatherDisplay:10.37,2014-01-04 04:15:00,
2014-01-03 22:20:00,19.3,13.0,30.37,ENE,78,0.2,2.0,76,0.00,CLR,,0.00,0.0,WeatherDisplay:10.37,2014-01-04 04:20:00,
2014-01-03 22:25:00,19.2,13.2,30.37,ENE,78,0.2,1.2,77,0.00,CLR,,0.00,0.0,WeatherDisplay:10.37,2014-01-04 04:25:00,
2014-01-03 22:30:00,19.1,13.1,30.37,ENE,78,0.7,1.2,77,0.00,CLR,,0.00,0.0,WeatherDisplay:10.37,2014-01-04 04:30:00,
2014-01-03 22:35:00,19.0,13.0,30.36,ENE,78,1.2,2.3,77,0.00,CLR,,0.00,0.0,WeatherDisplay:10.37,2014-01-04 04:35:00,
2014-01-03 22:40:00,18.9,13.2,30.36,ENE,78,1.0,2.3,78,0.00,CLR,,0.00,0.0,WeatherDisplay:10.37,2014-01-04 04:40:00,
2014-01-03 22:45:00,18.8,13.1,30.36,ENE,78,0.0,0.0,78,0.00,CLR,,0.00,0.0,WeatherDisplay:10.37,2014-01-04 04:45:00,
2014-01-03 22:50:00,18.8,13.1,30.36,ENE,78,0.0,0.0,78,0.00,CLR,,0.00,0.0,WeatherDisplay:10.37,2014-01-04 04:50:00,
2014-01-03 22:55:00,18.7,13.0,30.36,ENE,78,0.0,0.0,78,0.00,CLR,,0.00,0.0,WeatherDisplay:10.37,2014-01-04 04:55:00,
2014-01-03 23:00:00,18.6,12.9,30.36,ENE,78,0.0,0.0,78,0.00,CLR,,0.00,0.0,WeatherDisplay:10.37,2014-01-04 05:00:00,
2014-01-03 23:01:00,18.6,12.9,30.36,ENE,78,0.0,0.0,78,0.00,CLR,,0.00,0.0,WeatherDisplay:10.37,2014-01-04 05:01:00,
2014-01-03 23:02:00,18.5,12.8,30.36,ENE,78,0.1,1.2,78,0.00,CLR,,0.00,0.0,WeatherDisplay:10.37,2014-01-04 05:02:00,
2014-01-03 23:07:00,18.4,13.0,30.36,ENE,78,0.7,2.3,79,0.00,CLR,,0.00,0.0,WeatherDisplay:10.37,2014-01-04 05:07:00,
2014-01-03 23:12:00,18.3,13.2,30.36,East,86,1.0,3.0,80,0.00,CLR,,0.00,0.0,WeatherDisplay:10.37,2014-01-04 05:12:00,
2014-01-03 23:17:00,18.3,13.2,30.36,ESE,103,1.1,2.3,80,0.00,CLR,,0.00,0.0,WeatherDisplay:10.37,2014-01-04 05:17:00,
2014-01-03 23:22:00,18.3,13.4,30.36,ESE,103,0.0,0.0,81,0.00,CLR,,0.00,0.0,WeatherDisplay:10.37,2014-01-04 05:22:00,
2014-01-03 23:27:00,18.3,13.4,30.35,ESE,103,0.0,0.0,81,0.00,CLR,,0.00,0.0,WeatherDisplay:10.37,2014-01-04 05:27:00,
2014-01-03 23:32:00,18.3,13.4,30.35,ESE,103,0.0,0.0,81,0.00,CLR,,0.00,0.0,WeatherDisplay:10.37,2014-01-04 05:32:00,
2014-01-03 23:37:00,18.3,13.4,30.35,ESE,103,0.0,0.0,81,0.00,CLR,,0.00,0.0,WeatherDisplay:10.37,2014-01-04 05:37:00,
2014-01-03 23:42:00,18.4,13.5,30.34,ESE,103,0.0,0.0,81,0.00,CLR,,0.00,0.0,WeatherDisplay:10.37,2014-01-04 05:42:00,
2014-01-03 23:47:00,18.5,13.6,30.34,ESE,103,1.1,2.3,81,0.00,CLR,,0.00,0.0,WeatherDisplay:10.37,2014-01-04 05:47:00,
2014-01-03 23:52:00,18.6,13.5,30.34,ESE,103,1.1,2.3,80,0.00,CLR,,0.00,0.0,WeatherDisplay:10.37,2014-01-04 05:52:00,
2014-01-03 23:57:00,18.8,13.1,30.34,ESE,103,0.8,2.3,78,0.00,CLR,,0.00,0.0,WeatherDisplay:10.37,2014-01-04 05:57:00,